sensor_id;sensor_type;location;lat;lon;timestamp;P1;durP1;ratioP1;P2;durP2;ratioP2
60430;SDS011;46285;45.122;20.726;2022-08-19T00:00:18;11.57;;;7.00;;
60430;SDS011;46285;45.122;20.726;2022-08-19T00:02:44;11.35;;;7.28;;
60430;SDS011;46285;45.122;20.726;2022-08-19T00:05:12;12.65;;;7.90;;
60430;SDS011;46285;45.122;20.726;2022-08-19T00:07:38;11.00;;;6.88;;
60430;SDS011;46285;45.122;20.726;2022-08-19T00:10:05;11.80;;;6.70;;
60430;SDS011;46285;45.122;20.726;2022-08-19T00:12:32;11.98;;;6.53;;
60430;SDS011;46285;45.122;20.726;2022-08-19T00:14:59;16.50;;;7.78;;
60430;SDS011;46285;45.122;20.726;2022-08-19T00:17:25;13.32;;;7.13;;
60430;SDS011;46285;45.122;20.726;2022-08-19T00:19:51;9.32;;;6.05;;
60430;SDS011;46285;45.122;20.726;2022-08-19T00:22:17;10.63;;;6.38;;
60430;SDS011;46285;45.122;20.726;2022-08-19T00:24:44;12.82;;;7.30;;
60430;SDS011;46285;45.122;20.726;2022-08-19T00:27:11;12.60;;;6.43;;
60430;SDS011;46285;45.122;20.726;2022-08-19T00:29:37;13.07;;;7.35;;
60430;SDS011;46285;45.122;20.726;2022-08-19T00:32:03;10.87;;;6.87;;
60430;SDS011;46285;45.122;20.726;2022-08-19T00:34:30;13.27;;;6.72;;
60430;SDS011;46285;45.122;20.726;2022-08-19T00:36:56;9.80;;;6.68;;
60430;SDS011;46285;45.122;20.726;2022-08-19T00:39:23;11.13;;;7.70;;
60430;SDS011;46285;45.122;20.726;2022-08-19T00:41:49;12.63;;;7.35;;
60430;SDS011;46285;45.122;20.726;2022-08-19T00:44:21;14.35;;;7.88;;
60430;SDS011;46285;45.122;20.726;2022-08-19T00:46:48;12.38;;;7.85;;
60430;SDS011;46285;45.122;20.726;2022-08-19T00:51:41;15.80;;;8.07;;
60430;SDS011;46285;45.122;20.726;2022-08-19T00:56:34;12.50;;;7.57;;
60430;SDS011;46285;45.122;20.726;2022-08-19T00:59:01;12.32;;;6.68;;
60430;SDS011;46285;45.122;20.726;2022-08-19T01:01:28;12.30;;;7.45;;
60430;SDS011;46285;45.122;20.726;2022-08-19T01:03:54;12.57;;;7.90;;
60430;SDS011;46285;45.122;20.726;2022-08-19T01:06:20;18.30;;;8.00;;
60430;SDS011;46285;45.122;20.726;2022-08-19T01:08:46;13.55;;;7.75;;
60430;SDS011;46285;45.122;20.726;2022-08-19T01:11:12;12.73;;;7.38;;
60430;SDS011;46285;45.122;20.726;2022-08-19T01:13:39;12.18;;;8.55;;
60430;SDS011;46285;45.122;20.726;2022-08-19T01:16:07;12.27;;;8.67;;
60430;SDS011;46285;45.122;20.726;2022-08-19T01:18:38;13.75;;;8.10;;
60430;SDS011;46285;45.122;20.726;2022-08-19T01:21:08;12.38;;;7.88;;
60430;SDS011;46285;45.122;20.726;2022-08-19T01:23:35;14.80;;;9.23;;
60430;SDS011;46285;45.122;20.726;2022-08-19T01:26:20;19.45;;;8.30;;
60430;SDS011;46285;45.122;20.726;2022-08-19T01:28:47;12.48;;;8.13;;
60430;SDS011;46285;45.122;20.726;2022-08-19T01:31:16;13.07;;;8.70;;
60430;SDS011;46285;45.122;20.726;2022-08-19T01:33:43;14.23;;;8.60;;
60430;SDS011;46285;45.122;20.726;2022-08-19T01:36:14;14.90;;;9.53;;
60430;SDS011;46285;45.122;20.726;2022-08-19T01:38:41;17.90;;;9.95;;
60430;SDS011;46285;45.122;20.726;2022-08-19T01:41:08;18.77;;;9.25;;
60430;SDS011;46285;45.122;20.726;2022-08-19T01:43:35;15.50;;;8.52;;
60430;SDS011;46285;45.122;20.726;2022-08-19T01:46:01;12.73;;;8.13;;
60430;SDS011;46285;45.122;20.726;2022-08-19T01:48:32;15.32;;;8.93;;
60430;SDS011;46285;45.122;20.726;2022-08-19T01:50:58;14.52;;;8.20;;
60430;SDS011;46285;45.122;20.726;2022-08-19T01:53:24;15.02;;;9.18;;
60430;SDS011;46285;45.122;20.726;2022-08-19T01:55:51;21.80;;;9.05;;
60430;SDS011;46285;45.122;20.726;2022-08-19T01:58:21;12.27;;;8.80;;
60430;SDS011;46285;45.122;20.726;2022-08-19T02:00:48;12.60;;;8.43;;
60430;SDS011;46285;45.122;20.726;2022-08-19T02:03:15;11.80;;;8.20;;
60430;SDS011;46285;45.122;20.726;2022-08-19T02:05:42;15.63;;;8.00;;
60430;SDS011;46285;45.122;20.726;2022-08-19T02:08:09;13.13;;;8.77;;
60430;SDS011;46285;45.122;20.726;2022-08-19T02:10:38;12.30;;;7.85;;
60430;SDS011;46285;45.122;20.726;2022-08-19T02:13:04;14.05;;;8.93;;
60430;SDS011;46285;45.122;20.726;2022-08-19T02:15:30;18.00;;;8.52;;
60430;SDS011;46285;45.122;20.726;2022-08-19T02:17:57;11.95;;;8.57;;
60430;SDS011;46285;45.122;20.726;2022-08-19T02:20:23;18.63;;;7.95;;
60430;SDS011;46285;45.122;20.726;2022-08-19T02:22:49;13.60;;;6.80;;
60430;SDS011;46285;45.122;20.726;2022-08-19T02:25:16;14.60;;;7.53;;
60430;SDS011;46285;45.122;20.726;2022-08-19T02:27:42;10.10;;;6.28;;
60430;SDS011;46285;45.122;20.726;2022-08-19T02:30:10;11.87;;;6.70;;
60430;SDS011;46285;45.122;20.726;2022-08-19T02:32:37;12.02;;;6.97;;
60430;SDS011;46285;45.122;20.726;2022-08-19T02:35:04;13.50;;;6.55;;
60430;SDS011;46285;45.122;20.726;2022-08-19T02:37:30;11.35;;;6.53;;
60430;SDS011;46285;45.122;20.726;2022-08-19T02:40:15;11.48;;;6.80;;
60430;SDS011;46285;45.122;20.726;2022-08-19T02:42:43;10.25;;;5.53;;
60430;SDS011;46285;45.122;20.726;2022-08-19T02:47:36;11.20;;;6.20;;
60430;SDS011;46285;45.122;20.726;2022-08-19T02:50:02;10.43;;;5.90;;
60430;SDS011;46285;45.122;20.726;2022-08-19T02:52:29;9.73;;;5.65;;
60430;SDS011;46285;45.122;20.726;2022-08-19T02:54:55;10.75;;;5.97;;
60430;SDS011;46285;45.122;20.726;2022-08-19T02:57:22;9.07;;;5.55;;
60430;SDS011;46285;45.122;20.726;2022-08-19T02:59:49;9.23;;;5.27;;
60430;SDS011;46285;45.122;20.726;2022-08-19T03:02:15;9.10;;;5.40;;
60430;SDS011;46285;45.122;20.726;2022-08-19T03:04:41;11.63;;;5.43;;
60430;SDS011;46285;45.122;20.726;2022-08-19T03:07:08;11.85;;;5.05;;
60430;SDS011;46285;45.122;20.726;2022-08-19T03:09:36;7.65;;;4.70;;
60430;SDS011;46285;45.122;20.726;2022-08-19T03:12:03;11.65;;;5.88;;
60430;SDS011;46285;45.122;20.726;2022-08-19T03:14:35;9.98;;;5.07;;
60430;SDS011;46285;45.122;20.726;2022-08-19T03:17:01;8.70;;;4.90;;
60430;SDS011;46285;45.122;20.726;2022-08-19T03:19:28;8.73;;;4.40;;
60430;SDS011;46285;45.122;20.726;2022-08-19T03:21:54;9.50;;;4.82;;
60430;SDS011;46285;45.122;20.726;2022-08-19T03:24:20;9.50;;;4.32;;
60430;SDS011;46285;45.122;20.726;2022-08-19T03:26:50;8.68;;;4.78;;
60430;SDS011;46285;45.122;20.726;2022-08-19T03:29:16;8.43;;;4.50;;
60430;SDS011;46285;45.122;20.726;2022-08-19T03:31:43;8.17;;;4.27;;
60430;SDS011;46285;45.122;20.726;2022-08-19T03:34:10;9.73;;;4.67;;
60430;SDS011;46285;45.122;20.726;2022-08-19T03:36:37;9.45;;;5.32;;
60430;SDS011;46285;45.122;20.726;2022-08-19T03:39:03;7.47;;;4.37;;
60430;SDS011;46285;45.122;20.726;2022-08-19T03:41:31;9.25;;;4.50;;
60430;SDS011;46285;45.122;20.726;2022-08-19T03:43:58;8.45;;;4.10;;
60430;SDS011;46285;45.122;20.726;2022-08-19T03:46:29;8.02;;;4.15;;
60430;SDS011;46285;45.122;20.726;2022-08-19T03:48:56;8.95;;;4.47;;
60430;SDS011;46285;45.122;20.726;2022-08-19T03:51:27;7.95;;;5.05;;
60430;SDS011;46285;45.122;20.726;2022-08-19T03:53:56;17.15;;;5.05;;
60430;SDS011;46285;45.122;20.726;2022-08-19T03:56:23;9.50;;;4.60;;
60430;SDS011;46285;45.122;20.726;2022-08-19T03:58:53;11.77;;;4.30;;
60430;SDS011;46285;45.122;20.726;2022-08-19T04:01:21;8.43;;;4.40;;
60430;SDS011;46285;45.122;20.726;2022-08-19T04:03:47;9.93;;;4.85;;
60430;SDS011;46285;45.122;20.726;2022-08-19T04:08:40;10.50;;;4.88;;
60430;SDS011;46285;45.122;20.726;2022-08-19T04:11:09;7.55;;;4.60;;
60430;SDS011;46285;45.122;20.726;2022-08-19T04:13:35;10.10;;;4.25;;
60430;SDS011;46285;45.122;20.726;2022-08-19T04:16:02;8.20;;;4.75;;
60430;SDS011;46285;45.122;20.726;2022-08-19T04:18:29;11.18;;;5.30;;
60430;SDS011;46285;45.122;20.726;2022-08-19T04:20:56;9.20;;;5.10;;
60430;SDS011;46285;45.122;20.726;2022-08-19T04:23:22;11.02;;;4.70;;
60430;SDS011;46285;45.122;20.726;2022-08-19T04:25:48;12.52;;;5.43;;
60430;SDS011;46285;45.122;20.726;2022-08-19T04:28:15;11.18;;;4.85;;
60430;SDS011;46285;45.122;20.726;2022-08-19T04:30:51;9.57;;;4.95;;
60430;SDS011;46285;45.122;20.726;2022-08-19T04:33:19;11.32;;;5.45;;
60430;SDS011;46285;45.122;20.726;2022-08-19T04:35:46;10.02;;;5.25;;
60430;SDS011;46285;45.122;20.726;2022-08-19T04:38:14;12.55;;;5.13;;
60430;SDS011;46285;45.122;20.726;2022-08-19T04:40:41;9.52;;;4.72;;
60430;SDS011;46285;45.122;20.726;2022-08-19T04:43:26;8.73;;;4.85;;
60430;SDS011;46285;45.122;20.726;2022-08-19T04:45:52;9.45;;;5.25;;
60430;SDS011;46285;45.122;20.726;2022-08-19T04:48:19;12.52;;;5.43;;
60430;SDS011;46285;45.122;20.726;2022-08-19T04:50:51;17.20;;;6.43;;
60430;SDS011;46285;45.122;20.726;2022-08-19T04:53:23;15.35;;;4.90;;
60430;SDS011;46285;45.122;20.726;2022-08-19T04:58:16;10.45;;;4.85;;
60430;SDS011;46285;45.122;20.726;2022-08-19T05:00:42;11.10;;;4.27;;
60430;SDS011;46285;45.122;20.726;2022-08-19T05:03:09;12.85;;;5.78;;
60430;SDS011;46285;45.122;20.726;2022-08-19T05:05:39;14.98;;;5.35;;
60430;SDS011;46285;45.122;20.726;2022-08-19T05:08:06;12.90;;;4.75;;
60430;SDS011;46285;45.122;20.726;2022-08-19T05:10:34;8.23;;;4.25;;
60430;SDS011;46285;45.122;20.726;2022-08-19T05:13:01;13.10;;;4.22;;
60430;SDS011;46285;45.122;20.726;2022-08-19T05:15:27;13.73;;;5.05;;
60430;SDS011;46285;45.122;20.726;2022-08-19T05:17:54;11.68;;;5.47;;
60430;SDS011;46285;45.122;20.726;2022-08-19T05:20:38;11.52;;;4.75;;
60430;SDS011;46285;45.122;20.726;2022-08-19T05:23:43;9.38;;;4.40;;
60430;SDS011;46285;45.122;20.726;2022-08-19T05:26:09;10.23;;;5.20;;
60430;SDS011;46285;45.122;20.726;2022-08-19T05:28:35;15.03;;;4.97;;
60430;SDS011;46285;45.122;20.726;2022-08-19T05:31:02;12.23;;;4.35;;
60430;SDS011;46285;45.122;20.726;2022-08-19T05:33:28;10.20;;;4.20;;
60430;SDS011;46285;45.122;20.726;2022-08-19T05:35:54;12.73;;;4.53;;
60430;SDS011;46285;45.122;20.726;2022-08-19T05:38:21;13.80;;;5.03;;
60430;SDS011;46285;45.122;20.726;2022-08-19T05:40:47;11.02;;;5.38;;
60430;SDS011;46285;45.122;20.726;2022-08-19T05:43:14;9.25;;;5.35;;
60430;SDS011;46285;45.122;20.726;2022-08-19T05:45:41;11.38;;;5.45;;
60430;SDS011;46285;45.122;20.726;2022-08-19T05:48:08;8.18;;;4.30;;
60430;SDS011;46285;45.122;20.726;2022-08-19T05:50:36;8.73;;;4.53;;
60430;SDS011;46285;45.122;20.726;2022-08-19T05:53:02;12.30;;;5.00;;
60430;SDS011;46285;45.122;20.726;2022-08-19T05:55:29;9.83;;;4.70;;
60430;SDS011;46285;45.122;20.726;2022-08-19T05:57:55;14.77;;;4.83;;
60430;SDS011;46285;45.122;20.726;2022-08-19T06:00:21;8.77;;;4.73;;
60430;SDS011;46285;45.122;20.726;2022-08-19T06:02:48;8.77;;;4.65;;
60430;SDS011;46285;45.122;20.726;2022-08-19T06:05:16;9.43;;;4.85;;
60430;SDS011;46285;45.122;20.726;2022-08-19T06:07:42;12.18;;;5.38;;
60430;SDS011;46285;45.122;20.726;2022-08-19T06:10:09;10.23;;;4.50;;
60430;SDS011;46285;45.122;20.726;2022-08-19T06:12:36;14.15;;;5.28;;
60430;SDS011;46285;45.122;20.726;2022-08-19T06:15:06;15.30;;;4.73;;
60430;SDS011;46285;45.122;20.726;2022-08-19T06:17:33;10.15;;;4.28;;
60430;SDS011;46285;45.122;20.726;2022-08-19T06:22:26;10.00;;;4.88;;
60430;SDS011;46285;45.122;20.726;2022-08-19T06:27:19;9.60;;;4.85;;
60430;SDS011;46285;45.122;20.726;2022-08-19T06:32:13;12.30;;;4.70;;
60430;SDS011;46285;45.122;20.726;2022-08-19T06:34:41;10.80;;;4.60;;
60430;SDS011;46285;45.122;20.726;2022-08-19T06:39:35;17.73;;;4.15;;
60430;SDS011;46285;45.122;20.726;2022-08-19T06:42:04;12.82;;;4.28;;
60430;SDS011;46285;45.122;20.726;2022-08-19T06:44:36;12.43;;;4.57;;
60430;SDS011;46285;45.122;20.726;2022-08-19T06:47:05;14.00;;;4.80;;
60430;SDS011;46285;45.122;20.726;2022-08-19T06:49:31;9.77;;;4.20;;
60430;SDS011;46285;45.122;20.726;2022-08-19T06:51:58;12.85;;;4.43;;
60430;SDS011;46285;45.122;20.726;2022-08-19T06:54:25;7.57;;;4.15;;
60430;SDS011;46285;45.122;20.726;2022-08-19T06:56:53;9.60;;;4.15;;
60430;SDS011;46285;45.122;20.726;2022-08-19T06:59:21;11.50;;;5.20;;
60430;SDS011;46285;45.122;20.726;2022-08-19T07:01:48;8.65;;;4.50;;
60430;SDS011;46285;45.122;20.726;2022-08-19T07:04:16;10.38;;;3.70;;
60430;SDS011;46285;45.122;20.726;2022-08-19T07:06:43;15.90;;;5.03;;
60430;SDS011;46285;45.122;20.726;2022-08-19T07:09:10;10.02;;;4.57;;
60430;SDS011;46285;45.122;20.726;2022-08-19T07:11:37;9.15;;;4.32;;
60430;SDS011;46285;45.122;20.726;2022-08-19T07:14:03;8.65;;;4.15;;
60430;SDS011;46285;45.122;20.726;2022-08-19T07:16:31;9.55;;;4.63;;
60430;SDS011;46285;45.122;20.726;2022-08-19T07:18:57;11.68;;;4.53;;
60430;SDS011;46285;45.122;20.726;2022-08-19T07:23:52;11.23;;;4.40;;
60430;SDS011;46285;45.122;20.726;2022-08-19T07:26:20;12.45;;;4.22;;
60430;SDS011;46285;45.122;20.726;2022-08-19T07:28:47;12.57;;;5.10;;
60430;SDS011;46285;45.122;20.726;2022-08-19T07:31:14;10.02;;;4.28;;
60430;SDS011;46285;45.122;20.726;2022-08-19T07:33:43;16.67;;;4.65;;
60430;SDS011;46285;45.122;20.726;2022-08-19T07:36:10;11.45;;;4.32;;
60430;SDS011;46285;45.122;20.726;2022-08-19T07:38:36;10.13;;;5.22;;
60430;SDS011;46285;45.122;20.726;2022-08-19T07:41:04;6.63;;;4.10;;
60430;SDS011;46285;45.122;20.726;2022-08-19T07:43:30;9.93;;;4.10;;
60430;SDS011;46285;45.122;20.726;2022-08-19T07:45:57;11.07;;;4.88;;
60430;SDS011;46285;45.122;20.726;2022-08-19T07:48:24;10.52;;;4.47;;
60430;SDS011;46285;45.122;20.726;2022-08-19T07:50:58;12.43;;;4.50;;
60430;SDS011;46285;45.122;20.726;2022-08-19T07:53:27;17.65;;;5.20;;
60430;SDS011;46285;45.122;20.726;2022-08-19T07:55:53;9.52;;;4.57;;
60430;SDS011;46285;45.122;20.726;2022-08-19T07:58:20;11.57;;;4.70;;
60430;SDS011;46285;45.122;20.726;2022-08-19T08:00:48;18.63;;;5.70;;
60430;SDS011;46285;45.122;20.726;2022-08-19T08:03:16;13.40;;;4.40;;
60430;SDS011;46285;45.122;20.726;2022-08-19T08:05:43;19.00;;;4.07;;
60430;SDS011;46285;45.122;20.726;2022-08-19T08:08:28;10.18;;;3.83;;
60430;SDS011;46285;45.122;20.726;2022-08-19T08:11:13;8.75;;;3.78;;
60430;SDS011;46285;45.122;20.726;2022-08-19T08:13:39;7.82;;;4.20;;
60430;SDS011;46285;45.122;20.726;2022-08-19T08:16:06;9.00;;;4.00;;
60430;SDS011;46285;45.122;20.726;2022-08-19T08:18:32;13.27;;;4.32;;
60430;SDS011;46285;45.122;20.726;2022-08-19T08:21:06;11.90;;;4.93;;
60430;SDS011;46285;45.122;20.726;2022-08-19T08:23:32;8.82;;;4.65;;
60430;SDS011;46285;45.122;20.726;2022-08-19T08:25:59;14.88;;;4.63;;
60430;SDS011;46285;45.122;20.726;2022-08-19T08:31:19;9.63;;;4.45;;
60430;SDS011;46285;45.122;20.726;2022-08-19T08:33:45;11.05;;;4.78;;
60430;SDS011;46285;45.122;20.726;2022-08-19T08:36:12;8.70;;;4.45;;
60430;SDS011;46285;45.122;20.726;2022-08-19T08:38:41;12.55;;;5.22;;
60430;SDS011;46285;45.122;20.726;2022-08-19T08:43:38;18.45;;;5.05;;
60430;SDS011;46285;45.122;20.726;2022-08-19T08:46:10;10.65;;;5.18;;
60430;SDS011;46285;45.122;20.726;2022-08-19T08:48:57;9.45;;;4.65;;
60430;SDS011;46285;45.122;20.726;2022-08-19T08:51:32;13.80;;;5.28;;
60430;SDS011;46285;45.122;20.726;2022-08-19T08:53:59;9.10;;;4.57;;
60430;SDS011;46285;45.122;20.726;2022-08-19T08:56:26;18.83;;;5.35;;
60430;SDS011;46285;45.122;20.726;2022-08-19T08:58:56;13.65;;;5.05;;
60430;SDS011;46285;45.122;20.726;2022-08-19T09:01:24;10.43;;;4.55;;
60430;SDS011;46285;45.122;20.726;2022-08-19T09:03:50;10.05;;;5.15;;
60430;SDS011;46285;45.122;20.726;2022-08-19T09:09:16;14.10;;;5.60;;
60430;SDS011;46285;45.122;20.726;2022-08-19T09:11:47;15.07;;;4.55;;
60430;SDS011;46285;45.122;20.726;2022-08-19T09:17:02;11.05;;;4.93;;
60430;SDS011;46285;45.122;20.726;2022-08-19T09:19:33;14.93;;;5.20;;
60430;SDS011;46285;45.122;20.726;2022-08-19T09:22:00;9.15;;;4.90;;
60430;SDS011;46285;45.122;20.726;2022-08-19T09:24:26;12.07;;;4.30;;
60430;SDS011;46285;45.122;20.726;2022-08-19T09:26:52;13.95;;;5.32;;
60430;SDS011;46285;45.122;20.726;2022-08-19T09:29:19;11.90;;;5.00;;
60430;SDS011;46285;45.122;20.726;2022-08-19T09:31:45;12.95;;;6.25;;
60430;SDS011;46285;45.122;20.726;2022-08-19T09:34:12;10.18;;;4.40;;
60430;SDS011;46285;45.122;20.726;2022-08-19T09:36:38;9.02;;;4.50;;
60430;SDS011;46285;45.122;20.726;2022-08-19T09:39:04;8.93;;;4.65;;
60430;SDS011;46285;45.122;20.726;2022-08-19T09:41:31;14.50;;;5.18;;
60430;SDS011;46285;45.122;20.726;2022-08-19T09:43:58;12.45;;;4.68;;
60430;SDS011;46285;45.122;20.726;2022-08-19T09:46:26;12.85;;;5.30;;
60430;SDS011;46285;45.122;20.726;2022-08-19T09:48:53;11.80;;;5.47;;
60430;SDS011;46285;45.122;20.726;2022-08-19T09:51:24;13.10;;;4.85;;
60430;SDS011;46285;45.122;20.726;2022-08-19T09:53:51;12.48;;;5.68;;
60430;SDS011;46285;45.122;20.726;2022-08-19T09:56:21;8.93;;;5.05;;
60430;SDS011;46285;45.122;20.726;2022-08-19T09:58:48;11.07;;;4.47;;
60430;SDS011;46285;45.122;20.726;2022-08-19T10:01:18;9.73;;;4.45;;
60430;SDS011;46285;45.122;20.726;2022-08-19T10:03:46;11.05;;;5.25;;
60430;SDS011;46285;45.122;20.726;2022-08-19T10:06:13;12.65;;;5.10;;
60430;SDS011;46285;45.122;20.726;2022-08-19T10:08:39;13.48;;;4.57;;
60430;SDS011;46285;45.122;20.726;2022-08-19T10:11:05;10.90;;;4.88;;
60430;SDS011;46285;45.122;20.726;2022-08-19T10:13:31;10.65;;;4.72;;
60430;SDS011;46285;45.122;20.726;2022-08-19T10:16:05;9.57;;;5.38;;
60430;SDS011;46285;45.122;20.726;2022-08-19T10:18:31;14.57;;;4.57;;
60430;SDS011;46285;45.122;20.726;2022-08-19T10:21:08;7.53;;;4.47;;
60430;SDS011;46285;45.122;20.726;2022-08-19T10:23:42;10.70;;;4.22;;
60430;SDS011;46285;45.122;20.726;2022-08-19T10:26:11;14.85;;;4.00;;
60430;SDS011;46285;45.122;20.726;2022-08-19T10:28:37;13.98;;;4.72;;
60430;SDS011;46285;45.122;20.726;2022-08-19T10:33:31;10.45;;;5.18;;
60430;SDS011;46285;45.122;20.726;2022-08-19T10:38:24;14.30;;;4.75;;
60430;SDS011;46285;45.122;20.726;2022-08-19T10:43:18;9.57;;;5.00;;
60430;SDS011;46285;45.122;20.726;2022-08-19T10:45:48;16.30;;;5.22;;
60430;SDS011;46285;45.122;20.726;2022-08-19T10:48:14;12.27;;;5.07;;
60430;SDS011;46285;45.122;20.726;2022-08-19T10:53:25;9.13;;;4.47;;
60430;SDS011;46285;45.122;20.726;2022-08-19T10:55:51;10.80;;;5.20;;
60430;SDS011;46285;45.122;20.726;2022-08-19T10:58:36;11.70;;;5.07;;
60430;SDS011;46285;45.122;20.726;2022-08-19T11:01:02;11.57;;;4.60;;
60430;SDS011;46285;45.122;20.726;2022-08-19T11:03:28;12.32;;;4.50;;
60430;SDS011;46285;45.122;20.726;2022-08-19T11:06:02;10.30;;;4.63;;
60430;SDS011;46285;45.122;20.726;2022-08-19T11:08:29;10.00;;;4.40;;
60430;SDS011;46285;45.122;20.726;2022-08-19T11:10:58;10.70;;;4.47;;
60430;SDS011;46285;45.122;20.726;2022-08-19T11:13:28;8.93;;;4.82;;
60430;SDS011;46285;45.122;20.726;2022-08-19T11:16:02;10.23;;;4.47;;
60430;SDS011;46285;45.122;20.726;2022-08-19T11:18:28;9.48;;;4.63;;
60430;SDS011;46285;45.122;20.726;2022-08-19T11:20:54;15.85;;;6.45;;
60430;SDS011;46285;45.122;20.726;2022-08-19T11:23:21;11.75;;;4.80;;
60430;SDS011;46285;45.122;20.726;2022-08-19T11:25:47;10.57;;;4.55;;
60430;SDS011;46285;45.122;20.726;2022-08-19T11:28:13;15.27;;;5.60;;
60430;SDS011;46285;45.122;20.726;2022-08-19T11:30:39;15.25;;;4.78;;
60430;SDS011;46285;45.122;20.726;2022-08-19T11:33:05;13.35;;;4.30;;
60430;SDS011;46285;45.122;20.726;2022-08-19T11:35:31;12.35;;;4.68;;
60430;SDS011;46285;45.122;20.726;2022-08-19T11:37:58;14.07;;;4.78;;
60430;SDS011;46285;45.122;20.726;2022-08-19T11:40:26;11.52;;;4.65;;
60430;SDS011;46285;45.122;20.726;2022-08-19T11:42:52;11.68;;;4.93;;
60430;SDS011;46285;45.122;20.726;2022-08-19T11:45:22;15.18;;;4.90;;
60430;SDS011;46285;45.122;20.726;2022-08-19T11:47:49;15.10;;;5.03;;
60430;SDS011;46285;45.122;20.726;2022-08-19T11:50:15;11.95;;;4.35;;
60430;SDS011;46285;45.122;20.726;2022-08-19T11:52:43;11.70;;;4.38;;
60430;SDS011;46285;45.122;20.726;2022-08-19T11:55:10;13.80;;;4.13;;
60430;SDS011;46285;45.122;20.726;2022-08-19T11:57:36;9.65;;;4.43;;
60430;SDS011;46285;45.122;20.726;2022-08-19T12:00:03;11.23;;;4.45;;
60430;SDS011;46285;45.122;20.726;2022-08-19T12:02:32;16.50;;;4.45;;
60430;SDS011;46285;45.122;20.726;2022-08-19T12:04:58;13.30;;;4.47;;
60430;SDS011;46285;45.122;20.726;2022-08-19T12:07:27;9.27;;;4.38;;
60430;SDS011;46285;45.122;20.726;2022-08-19T12:09:54;15.30;;;5.03;;
60430;SDS011;46285;45.122;20.726;2022-08-19T12:12:20;17.33;;;4.80;;
60430;SDS011;46285;45.122;20.726;2022-08-19T12:14:46;12.32;;;4.38;;
60430;SDS011;46285;45.122;20.726;2022-08-19T12:17:13;17.00;;;4.30;;
60430;SDS011;46285;45.122;20.726;2022-08-19T12:19:39;13.23;;;3.35;;
60430;SDS011;46285;45.122;20.726;2022-08-19T12:22:05;9.77;;;4.05;;
60430;SDS011;46285;45.122;20.726;2022-08-19T12:24:32;9.90;;;3.63;;
60430;SDS011;46285;45.122;20.726;2022-08-19T12:26:59;13.23;;;4.13;;
60430;SDS011;46285;45.122;20.726;2022-08-19T12:29:26;9.75;;;3.88;;
60430;SDS011;46285;45.122;20.726;2022-08-19T12:31:53;10.95;;;4.10;;
60430;SDS011;46285;45.122;20.726;2022-08-19T12:34:25;8.07;;;4.07;;
60430;SDS011;46285;45.122;20.726;2022-08-19T12:36:54;9.40;;;3.30;;
60430;SDS011;46285;45.122;20.726;2022-08-19T12:41:47;11.27;;;4.25;;
60430;SDS011;46285;45.122;20.726;2022-08-19T12:44:14;12.02;;;3.88;;
60430;SDS011;46285;45.122;20.726;2022-08-19T12:49:06;13.48;;;4.53;;
60430;SDS011;46285;45.122;20.726;2022-08-19T12:51:32;17.13;;;5.30;;
60430;SDS011;46285;45.122;20.726;2022-08-19T12:53:58;9.45;;;3.97;;
60430;SDS011;46285;45.122;20.726;2022-08-19T12:58:50;9.73;;;4.03;;
60430;SDS011;46285;45.122;20.726;2022-08-19T13:03:44;12.02;;;3.92;;
60430;SDS011;46285;45.122;20.726;2022-08-19T13:06:11;11.95;;;3.53;;
60430;SDS011;46285;45.122;20.726;2022-08-19T13:11:07;11.38;;;4.18;;
60430;SDS011;46285;45.122;20.726;2022-08-19T13:13:33;10.65;;;4.03;;
60430;SDS011;46285;45.122;20.726;2022-08-19T13:16:00;10.98;;;3.45;;
60430;SDS011;46285;45.122;20.726;2022-08-19T13:18:28;10.70;;;4.22;;
60430;SDS011;46285;45.122;20.726;2022-08-19T13:20:54;11.23;;;4.45;;
60430;SDS011;46285;45.122;20.726;2022-08-19T13:23:21;9.95;;;4.57;;
60430;SDS011;46285;45.122;20.726;2022-08-19T13:25:57;10.15;;;4.68;;
60430;SDS011;46285;45.122;20.726;2022-08-19T13:28:24;33.53;;;6.10;;
60430;SDS011;46285;45.122;20.726;2022-08-19T13:30:50;10.50;;;3.60;;
60430;SDS011;46285;45.122;20.726;2022-08-19T13:33:35;13.02;;;3.50;;
60430;SDS011;46285;45.122;20.726;2022-08-19T13:36:01;14.73;;;4.13;;
60430;SDS011;46285;45.122;20.726;2022-08-19T13:38:31;10.65;;;4.57;;
60430;SDS011;46285;45.122;20.726;2022-08-19T13:41:03;14.65;;;4.70;;
60430;SDS011;46285;45.122;20.726;2022-08-19T13:43:29;8.85;;;3.65;;
60430;SDS011;46285;45.122;20.726;2022-08-19T13:45:55;12.93;;;4.35;;
60430;SDS011;46285;45.122;20.726;2022-08-19T13:48:22;10.98;;;3.80;;
60430;SDS011;46285;45.122;20.726;2022-08-19T13:50:48;9.35;;;3.90;;
60430;SDS011;46285;45.122;20.726;2022-08-19T13:55:41;16.73;;;4.40;;
60430;SDS011;46285;45.122;20.726;2022-08-19T13:58:10;12.93;;;4.28;;
60430;SDS011;46285;45.122;20.726;2022-08-19T14:00:44;14.20;;;3.50;;
60430;SDS011;46285;45.122;20.726;2022-08-19T14:03:10;13.10;;;4.85;;
60430;SDS011;46285;45.122;20.726;2022-08-19T14:08:02;9.98;;;4.32;;
60430;SDS011;46285;45.122;20.726;2022-08-19T14:12:57;13.63;;;3.72;;
60430;SDS011;46285;45.122;20.726;2022-08-19T14:15:24;9.65;;;3.88;;
60430;SDS011;46285;45.122;20.726;2022-08-19T14:20:41;8.48;;;3.72;;
60430;SDS011;46285;45.122;20.726;2022-08-19T14:23:07;12.82;;;4.55;;
60430;SDS011;46285;45.122;20.726;2022-08-19T14:25:33;12.52;;;4.05;;
60430;SDS011;46285;45.122;20.726;2022-08-19T14:28:00;11.50;;;3.70;;
60430;SDS011;46285;45.122;20.726;2022-08-19T14:30:30;10.52;;;3.90;;
60430;SDS011;46285;45.122;20.726;2022-08-19T14:32:57;10.32;;;3.92;;
60430;SDS011;46285;45.122;20.726;2022-08-19T14:35:24;13.32;;;3.83;;
60430;SDS011;46285;45.122;20.726;2022-08-19T14:37:53;10.30;;;4.35;;
60430;SDS011;46285;45.122;20.726;2022-08-19T14:40:20;14.05;;;4.10;;
60430;SDS011;46285;45.122;20.726;2022-08-19T14:42:50;12.38;;;3.92;;
60430;SDS011;46285;45.122;20.726;2022-08-19T14:45:17;10.50;;;4.10;;
60430;SDS011;46285;45.122;20.726;2022-08-19T14:47:43;12.93;;;3.70;;
60430;SDS011;46285;45.122;20.726;2022-08-19T14:50:10;14.20;;;4.03;;
60430;SDS011;46285;45.122;20.726;2022-08-19T14:52:36;13.90;;;4.22;;
60430;SDS011;46285;45.122;20.726;2022-08-19T14:55:03;10.73;;;3.90;;
60430;SDS011;46285;45.122;20.726;2022-08-19T14:57:29;14.68;;;4.10;;
60430;SDS011;46285;45.122;20.726;2022-08-19T14:59:55;12.70;;;4.28;;
60430;SDS011;46285;45.122;20.726;2022-08-19T15:04:48;12.63;;;4.65;;
60430;SDS011;46285;45.122;20.726;2022-08-19T15:07:15;10.52;;;3.53;;
60430;SDS011;46285;45.122;20.726;2022-08-19T15:09:41;14.35;;;5.15;;
60430;SDS011;46285;45.122;20.726;2022-08-19T15:12:10;10.40;;;3.72;;
60430;SDS011;46285;45.122;20.726;2022-08-19T15:14:36;19.05;;;4.88;;
60430;SDS011;46285;45.122;20.726;2022-08-19T15:17:03;9.88;;;3.95;;
60430;SDS011;46285;45.122;20.726;2022-08-19T15:19:30;11.07;;;4.20;;
60430;SDS011;46285;45.122;20.726;2022-08-19T15:21:57;13.20;;;4.15;;
60430;SDS011;46285;45.122;20.726;2022-08-19T15:24:23;10.15;;;3.72;;
60430;SDS011;46285;45.122;20.726;2022-08-19T15:26:50;12.73;;;4.93;;
60430;SDS011;46285;45.122;20.726;2022-08-19T15:29:17;11.63;;;4.03;;
60430;SDS011;46285;45.122;20.726;2022-08-19T15:31:43;11.05;;;3.88;;
60430;SDS011;46285;45.122;20.726;2022-08-19T15:34:10;10.07;;;3.65;;
60430;SDS011;46285;45.122;20.726;2022-08-19T15:36:37;10.98;;;4.47;;
60430;SDS011;46285;45.122;20.726;2022-08-19T15:39:03;14.23;;;3.38;;